Time;durP1;ratioP1;P1;durP2;ratioP2;P2;SDS_P1;SDS_P2;PMS_P1;PMS_P2;Temp;Humidity;BMP_temperature;BMP_pressure;BME280_temperature;BME280_humidity;BME280_pressure;Samples;Min_cycle;Max_cycle;Signal;HPM_P1;HPM_P2
2023/04/06 00:00:53;;;;;;;9.88;6.85;;;;;;;3.28;63.91;98556.44;7395995;19;19914;-79
2023/04/06 00:03:20;;;;;;;11.88;8.23;;;;;;;3.22;64.37;98556.88;7392992;19;20372;-80
2023/04/06 00:05:47;;;;;;;10.80;8.13;;;;;;;3.13;64.47;98552.25;7394933;19;19914;-79
2023/04/06 00:08:14;;;;;;;11.00;9.75;;;;;;;3.08;64.83;98553.41;7394890;19;20250;-80
2023/04/06 00:10:41;;;;;;;10.65;7.15;;;;;;;3.01;65.31;98552.16;7388562;19;19918;-81
2023/04/06 00:13:08;;;;;;;9.70;7.60;;;;;;;2.97;65.45;98560.28;7392190;19;19926;-79
2023/04/06 00:15:35;;;;;;;8.88;7.90;;;;;;;2.94;65.63;98550.88;7393504;19;19938;-81
2023/04/06 00:18:02;;;;;;;9.00;7.40;;;;;;;2.88;65.64;98553.91;7393521;19;20352;-80
2023/04/06 00:20:29;;;;;;;11.27;6.95;;;;;;;2.74;65.88;98552.25;7394109;19;19918;-81
2023/04/06 00:22:56;;;;;;;10.55;9.27;;;;;;;2.73;66.09;98550.53;7410193;19;20241;-80
2023/04/06 00:25:22;;;;;;;12.07;10.85;;;;;;;2.63;66.18;98545.13;7397249;19;20277;-81
2023/04/06 00:27:49;;;;;;;9.65;7.72;;;;;;;2.63;66.51;98550.34;7391597;19;19914;-81
2023/04/06 00:30:17;;;;;;;9.52;8.35;;;;;;;2.61;66.47;98546.16;7393422;19;19918;-80
2023/04/06 00:32:44;;;;;;;9.27;7.20;;;;;;;2.63;66.63;98539.03;7392487;19;19919;-80
2023/04/06 00:35:11;;;;;;;11.30;8.00;;;;;;;2.62;66.97;98540.81;7393961;19;19911;-79
2023/04/06 00:37:37;;;;;;;9.70;7.63;;;;;;;2.60;66.74;98542.69;7394849;19;19915;-80
2023/04/06 00:40:05;;;;;;;10.23;7.97;;;;;;;2.59;66.50;98538.41;7390696;19;19917;-81
2023/04/06 00:42:32;;;;;;;10.07;7.47;;;;;;;2.50;65.62;98531.19;7391201;19;19922;-80
2023/04/06 00:44:59;;;;;;;10.35;7.55;;;;;;;2.52;66.50;98531.91;7389304;19;20360;-80
2023/04/06 00:47:26;;;;;;;12.07;7.90;;;;;;;2.51;66.85;98529.41;7393349;19;19919;-81
2023/04/06 00:49:54;;;;;;;9.73;7.18;;;;;;;2.50;66.72;98535.56;7391664;19;19919;-79
2023/04/06 00:52:21;;;;;;;9.60;7.25;;;;;;;2.50;67.32;98535.56;7394688;19;20352;-81
2023/04/06 00:54:49;;;;;;;10.45;7.13;;;;;;;2.49;67.23;98533.91;7391957;19;19918;-79
2023/04/06 00:57:18;;;;;;;8.50;7.35;;;;;;;2.48;67.17;98532.22;7393912;19;19925;-80
2023/04/06 00:59:48;;;;;;;9.80;7.32;;;;;;;2.52;67.16;98538.91;7386969;19;19925;-80
2023/04/06 01:02:14;;;;;;;9.52;6.22;;;;;;;2.54;67.02;98532.66;7391047;19;20577;-81
2023/04/06 01:04:46;;;;;;;10.77;7.53;;;;;;;2.55;66.69;98536.09;7387876;19;19945;-78
2023/04/06 01:07:24;;;;;;;9.00;6.47;;;;;;;2.56;66.81;98532.56;7392300;19;19926;-80
2023/04/06 01:10:06;;;;;;;8.90;7.60;;;;;;;2.57;66.74;98527.22;7387662;19;19918;-79
2023/04/06 01:12:34;;;;;;;11.27;7.20;;;;;;;2.60;66.34;98519.16;7390969;19;19918;-80
2023/04/06 01:15:06;;;;;;;8.57;7.00;;;;;;;2.56;66.18;98520.34;7391436;19;19923;-79
2023/04/06 01:17:36;;;;;;;;;;;;;;;2.61;66.44;98520.88;7392240;19;19935;-80
2023/04/06 01:20:09;;;;;;;9.27;7.00;;;;;;;2.56;66.01;98515.13;7388884;19;19918;-80
2023/04/06 01:22:37;;;;;;;10.55;7.70;;;;;;;2.60;66.15;98526.19;7386314;19;19922;-80
2023/04/06 01:25:04;;;;;;;7.35;6.60;;;;;;;2.60;66.13;98516.56;7392171;19;19951;-80
2023/04/06 01:27:38;;;;;;;10.00;6.45;;;;;;;2.61;66.15;98520.88;7391596;19;19982;-81
2023/04/06 01:30:11;;;;;;;8.73;6.90;;;;;;;2.58;65.82;98517.59;7392545;19;19911;-80
2023/04/06 01:32:44;;;;;;;7.20;5.72;;;;;;;2.54;66.50;98516.97;7388987;19;19943;-81
2023/04/06 01:35:14;;;;;;;7.82;6.80;;;;;;;2.49;66.21;98513.00;7391584;19;19919;-81
2023/04/06 01:37:49;;;;;;;8.45;6.50;;;;;;;2.48;66.34;98512.19;7390406;19;19918;-81
2023/04/06 01:40:23;;;;;;;9.45;7.25;;;;;;;2.44;66.59;98510.69;7390095;19;19911;-81
2023/04/06 01:42:51;;;;;;;9.15;7.40;;;;;;;2.37;66.46;98499.81;7389206;19;19918;-81
2023/04/06 01:45:26;;;;;;;10.25;7.47;;;;;;;2.41;66.54;98514.34;7394255;19;19944;-81
2023/04/06 01:47:57;;;;;;;11.35;7.60;;;;;;;2.47;66.79;98507.88;7391596;19;19990;-81
2023/04/06 01:50:26;;;;;;;9.05;7.63;;;;;;;2.51;66.50;98511.97;7390766;19;19922;-80
2023/04/06 01:52:53;;;;;;;10.30;7.00;;;;;;;2.48;66.37;98506.94;7391262;19;19931;-81
2023/04/06 01:55:21;;;;;;;12.27;8.82;;;;;;;2.42;65.99;98502.97;7390506;19;19982;-81
2023/04/06 01:58:06;;;;;;;8.13;5.97;;;;;;;2.39;66.11;98499.72;7391490;19;19930;-81
2023/04/06 02:00:37;;;;;;;9.63;7.35;;;;;;;2.34;66.19;98499.19;7390102;19;19922;-82
2023/04/06 02:03:05;;;;;;;9.43;6.53;;;;;;;2.42;66.18;98496.88;7390840;19;19939;-82
2023/04/06 02:05:37;;;;;;;9.50;7.53;;;;;;;2.45;66.53;98495.84;7390362;19;21082;-81
2023/04/06 02:08:15;;;;;;;8.82;7.80;;;;;;;2.49;66.48;98498.16;7400500;19;19966;-82
2023/04/06 02:10:42;;;;;;;7.70;6.43;;;;;;;2.41;66.17;98500.44;7397762;19;19966;-81
2023/04/06 02:13:18;;;;;;;11.35;7.07;;;;;;;2.46;66.28;98494.94;7389030;19;19932;-81
2023/04/06 02:15:49;;;;;;;13.98;8.70;;;;;;;2.48;66.33;98499.13;7388393;19;20309;-81
2023/04/06 02:18:17;;;;;;;8.85;7.72;;;;;;;2.42;65.99;98500.38;7391925;19;19955;-79
2023/04/06 02:20:44;;;;;;;9.95;7.78;;;;;;;2.48;66.21;98496.50;7389182;19;19914;-81
2023/04/06 02:23:12;;;;;;;9.93;7.53;;;;;;;2.46;65.96;98494.94;7386596;19;20005;-81
2023/04/06 02:25:39;;;;;;;9.85;8.13;;;;;;;2.50;65.57;98494.63;7393276;19;19947;-81
2023/04/06 02:28:06;;;;;;;12.00;8.18;;;;;;;2.44;65.12;98491.59;7387524;19;19911;-81
2023/04/06 02:30:34;;;;;;;11.55;9.35;;;;;;;2.48;65.16;98493.06;7388329;19;20263;-82
2023/04/06 02:33:01;;;;;;;9.95;7.40;;;;;;;2.43;64.89;98490.75;7392564;19;20288;-81
2023/04/06 02:35:35;;;;;;;10.80;7.40;;;;;;;2.42;64.67;98495.16;7389964;19;19919;-83
2023/04/06 02:38:02;;;;;;;8.95;6.63;;;;;;;2.39;65.23;98492.72;7392132;19;19918;-81
2023/04/06 02:40:29;;;;;;;9.68;7.22;;;;;;;2.27;65.07;98484.88;7393010;19;19915;-82
2023/04/06 02:43:00;;;;;;;13.52;7.97;;;;;;;2.28;65.59;98489.16;7388962;19;19975;-82
2023/04/06 02:45:30;;;;;;;10.88;7.47;;;;;;;2.26;65.67;98486.63;7392833;19;19925;-81
2023/04/06 02:47:59;;;;;;;14.48;10.63;;;;;;;2.26;65.99;98488.41;7390817;19;20277;-81
2023/04/06 02:50:26;;;;;;;8.05;6.38;;;;;;;2.24;65.56;98483.31;7389749;19;19911;-81
2023/04/06 02:52:58;;;;;;;11.88;9.07;;;;;;;2.18;65.83;98481.91;7390333;19;19978;-81
2023/04/06 02:55:25;;;;;;;10.02;7.85;;;;;;;2.14;65.63;98484.84;7391311;19;19927;-80
2023/04/06 02:57:52;;;;;;;8.45;6.88;;;;;;;2.13;66.13;98485.75;7385936;19;21236;-81
2023/04/06 03:00:24;;;;;;;10.73;6.75;;;;;;;2.12;66.14;98479.69;7388695;19;20414;-80
2023/04/06 03:02:51;;;;;;;9.50;6.40;;;;;;;2.09;65.87;98479.91;7387179;19;19974;-81
2023/04/06 03:05:18;;;;;;;8.18;7.20;;;;;;;2.08;65.96;98480.00;7387423;19;19929;-81
2023/04/06 03:07:46;;;;;;;8.93;7.43;;;;;;;2.08;66.09;98478.25;7375667;19;19951;-81
2023/04/06 03:10:20;;;;;;;11.13;7.80;;;;;;;2.06;66.13;98474.06;7387739;19;20483;-81
2023/04/06 03:12:48;;;;;;;10.32;7.63;;;;;;;2.05;66.64;98472.38;7384315;19;19926;-82
2023/04/06 03:15:20;;;;;;;12.57;7.35;;;;;;;2.04;66.51;98476.75;7385973;19;21168;-81
2023/04/06 03:17:51;;;;;;;13.05;8.43;;;;;;;2.04;66.66;98475.94;7386639;19;19982;-83
2023/04/06 03:20:30;;;;;;;11.02;7.18;;;;;;;2.04;66.72;98471.53;7384999;19;19906;-80
2023/04/06 03:22:58;;;;;;;10.43;9.40;;;;;;;1.89;65.89;98478.56;7382615;19;20292;-80
2023/04/06 03:25:30;;;;;;;10.65;7.88;;;;;;;1.63;66.15;98480.22;7382991;19;19922;-80
2023/04/06 03:28:00;;;;;;;10.32;9.20;;;;;;;1.41;66.60;98482.53;7388153;19;20293;-81
2023/04/06 03:30:31;;;;;;;10.30;7.00;;;;;;;1.56;66.89;98486.78;7388599;19;19914;-81
2023/04/06 03:32:57;;;;;;;9.38;6.85;;;;;;;1.57;67.27;98485.84;7388405;19;20325;-81
2023/04/06 03:35:27;;;;;;;9.07;7.72;;;;;;;1.21;66.93;98489.81;7386675;19;19935;-81
2023/04/06 03:37:56;;;;;;;10.10;8.13;;;;;;;1.33;67.41;98483.00;7382903;19;19917;-80
2023/04/06 03:40:23;;;;;;;9.82;6.95;;;;;;;1.41;67.62;98490.34;7388182;19;19922;-81
2023/04/06 03:42:50;;;;;;;13.02;9.10;;;;;;;1.45;68.29;98486.59;7388586;19;19934;-81
2023/04/06 03:45:17;;;;;;;12.23;9.27;;;;;;;1.38;68.01;98487.94;7388542;19;19921;-80
2023/04/06 03:47:47;;;;;;;10.98;8.18;;;;;;;1.41;68.28;98485.97;7385055;19;19932;-80
2023/04/06 03:50:14;;;;;;;11.00;8.38;;;;;;;1.45;68.24;98487.47;7388454;19;19943;-80
2023/04/06 03:52:40;;;;;;;10.43;7.20;;;;;;;1.47;68.31;98495.19;7390582;19;19942;-79
2023/04/06 03:55:08;;;;;;;10.63;7.55;;;;;;;1.30;67.76;98488.41;7407052;19;19926;-80
2023/04/06 03:57:36;;;;;;;12.30;7.53;;;;;;;1.38;68.03;98494.00;7386217;19;19918;-80
2023/04/06 04:00:03;;;;;;;8.25;7.35;;;;;;;1.43;68.37;98507.56;7384479;19;19943;-80
2023/04/06 04:02:38;;;;;;;10.07;7.07;;;;;;;1.43;68.57;98506.75;7396547;19;19914;-79
2023/04/06 04:05:05;;;;;;;11.85;7.43;;;;;;;1.43;68.78;98496.31;7384409;19;19910;-80
2023/04/06 04:07:32;;;;;;;9.68;7.03;;;;;;;1.42;68.69;98499.84;7384492;19;19933;-80
2023/04/06 04:10:00;;;;;;;12.20;7.18;;;;;;;1.42;68.78;98500.69;7376842;19;19919;-80
2023/04/06 04:12:27;;;;;;;10.10;7.75;;;;;;;1.41;68.73;98504.22;7385491;19;19932;-79
2023/04/06 04:14:56;;;;;;;11.77;10.52;;;;;;;1.53;69.01;98502.63;7382901;19;20400;-80
2023/04/06 04:17:22;;;;;;;12.88;8.60;;;;;;;1.54;68.78;98504.28;7387370;19;19934;-79
2023/04/06 04:19:49;;;;;;;11.70;10.52;;;;;;;1.52;68.55;98506.16;7383861;19;20177;-79
2023/04/06 04:22:16;;;;;;;9.95;6.82;;;;;;;1.49;68.25;98509.78;7392837;19;19919;-79
2023/04/06 04:24:43;;;;;;;13.07;10.68;;;;;;;1.47;68.20;98505.59;7390522;19;20252;-79
2023/04/06 04:27:10;;;;;;;8.75;7.00;;;;;;;1.37;67.90;98505.34;7388291;19;19929;-81
2023/04/06 04:29:38;;;;;;;9.88;8.35;;;;;;;1.42;68.60;98502.44;7387482;19;19935;-79
2023/04/06 04:32:08;;;;;;;10.75;8.15;;;;;;;1.42;68.57;98511.13;7389711;19;19949;-81
2023/04/06 04:34:35;;;;;;;12.07;7.93;;;;;;;1.29;67.52;98512.78;7391870;19;19919;-79
2023/04/06 04:37:04;;;;;;;10.50;8.35;;;;;;;1.17;67.76;98518.75;7386448;19;19965;-80
2023/04/06 04:39:44;;;;;;;10.38;9.38;;;;;;;1.11;68.04;98514.78;7387577;19;20260;-79
2023/04/06 04:42:11;;;;;;;10.77;7.88;;;;;;;1.16;68.67;98520.53;7380535;19;19914;-80
2023/04/06 04:44:43;;;;;;;9.82;8.50;;;;;;;1.22;68.69;98517.56;7383849;19;19921;-80
2023/04/06 04:47:10;;;;;;;10.40;7.28;;;;;;;1.27;69.05;98514.66;7391216;19;19915;-80
2023/04/06 04:49:42;;;;;;;10.02;7.45;;;;;;;1.26;68.79;98516.44;7386180;19;19921;-80
2023/04/06 04:52:11;;;;;;;7.88;6.82;;;;;;;1.25;69.13;98514.75;7388857;19;19914;-80
2023/04/06 04:54:50;;;;;;;15.95;7.75;;;;;;;1.24;69.00;98510.47;7390526;19;19919;-79
2023/04/06 04:57:23;;;;;;;10.10;7.90;;;;;;;1.25;69.42;98513.91;7396968;19;19915;-79
2023/04/06 04:59:50;;;;;;;9.40;8.40;;;;;;;1.31;69.62;98510.94;7387386;19;19921;-79
2023/04/06 05:02:18;;;;;;;12.10;10.45;;;;;;;1.36;69.45;98510.66;7394912;19;20221;-79
2023/04/06 05:05:05;;;;;;;9.13;7.78;;;;;;;1.39;69.34;98518.28;7393733;19;19918;-79
2023/04/06 05:07:32;;;;;;;12.30;8.52;;;;;;;1.41;69.07;98513.81;7392125;19;19999;-79
2023/04/06 05:10:00;;;;;;;10.25;9.20;;;;;;;1.42;69.27;98516.34;7356740;19;20269;-70
2023/04/06 05:12:31;;;;;;;10.70;9.57;;;;;;;1.45;68.60;98525.72;7377620;19;20362;-70
2023/04/06 05:15:04;;;;;;;12.20;8.13;;;;;;;1.45;68.80;98526.56;7379889;19;19926;-70
2023/04/06 05:17:31;;;;;;;13.25;8.02;;;;;;;1.49;69.21;98525.44;7382044;19;19929;-70
2023/04/06 05:19:58;;;;;;;11.52;8.77;;;;;;;1.53;69.13;98528.72;7383347;19;19947;-70
2023/04/06 05:22:26;;;;;;;12.02;8.07;;;;;;;1.57;69.10;98527.56;7387094;19;20398;-70
2023/04/06 05:25:02;;;;;;;10.30;9.20;;;;;;;1.58;69.21;98531.88;7380641;19;19925;-70
2023/04/06 05:27:30;;;;;;;13.38;8.57;;;;;;;1.67;68.61;98538.28;7383818;19;19918;-70
2023/04/06 05:30:00;;;;;;;14.65;8.20;;;;;;;1.76;68.56;98540.28;7379971;19;19948;-70
2023/04/06 05:32:29;;;;;;;13.05;10.57;;;;;;;1.84;68.54;98542.41;7379881;19;20279;-70
2023/04/06 05:34:56;;;;;;;12.63;7.63;;;;;;;1.89;67.87;98540.34;7382052;19;19923;-70
2023/04/06 05:37:24;;;;;;;11.82;10.60;;;;;;;1.86;67.54;98544.00;7383691;19;20219;-70
2023/04/06 05:39:51;;;;;;;13.80;8.82;;;;;;;1.96;67.79;98545.09;7380049;19;19931;-70
2023/04/06 05:42:19;;;;;;;12.38;8.27;;;;;;;1.97;67.30;98546.78;7383460;19;19949;-70
2023/04/06 05:44:55;;;;;;;14.05;8.55;;;;;;;1.94;66.70;98544.34;7377007;19;19914;-70
2023/04/06 05:47:22;;;;;;;11.32;8.57;;;;;;;2.05;66.97;98551.50;7385776;19;19915;-70
2023/04/06 05:49:57;;;;;;;12.68;11.23;;;;;;;2.08;66.50;98550.47;7380955;19;20325;-70
2023/04/06 05:52:35;;;;;;;11.48;9.02;;;;;;;2.15;66.67;98549.97;7388023;19;19925;-70
2023/04/06 05:55:03;;;;;;;11.98;10.40;;;;;;;2.23;66.63;98543.44;7382133;19;19926;-70
2023/04/06 05:57:30;;;;;;;11.50;8.70;;;;;;;2.29;66.80;98543.03;7385602;19;20319;-70
2023/04/06 05:59:57;;;;;;;16.20;11.63;;;;;;;2.40;66.62;98551.00;7380078;19;20257;-70
2023/04/06 06:02:39;;;;;;;12.00;8.77;;;;;;;2.39;65.86;98544.94;7386351;19;20330;-70
2023/04/06 06:05:10;;;;;;;14.48;10.05;;;;;;;2.48;66.29;98551.34;7383521;19;19922;-70
2023/04/06 06:07:39;;;;;;;13.40;10.68;;;;;;;2.55;66.33;98543.94;7382610;19;20601;-70
2023/04/06 06:10:06;;;;;;;13.85;9.57;;;;;;;2.59;65.54;98554.06;7384660;19;19922;-70
2023/04/06 06:12:36;;;;;;;12.80;9.95;;;;;;;2.70;65.81;98558.59;7381298;19;19926;-70
2023/04/06 06:15:03;;;;;;;14.18;9.20;;;;;;;2.67;65.63;98555.34;7381690;19;19926;-70
2023/04/06 06:17:34;;;;;;;13.35;9.55;;;;;;;2.81;66.02;98555.25;7384343;19;19918;-70
2023/04/06 06:20:06;;;;;;;11.52;8.93;;;;;;;2.86;65.77;98568.84;7378079;19;20465;-70
2023/04/06 06:22:33;;;;;;;11.52;8.95;;;;;;;2.90;65.37;98562.50;7387743;19;19926;-70
2023/04/06 06:25:01;;;;;;;12.10;8.85;;;;;;;2.95;65.14;98556.94;7377058;19;19938;-70
2023/04/06 06:27:28;;;;;;;12.38;9.15;;;;;;;2.98;64.81;98556.75;7387672;19;19956;-70
2023/04/06 06:29:55;;;;;;;10.93;7.97;;;;;;;3.04;64.66;98551.94;7379704;19;19941;-70
2023/04/06 06:32:23;;;;;;;10.70;8.10;;;;;;;3.07;64.29;98553.50;7383215;19;19923;-70
2023/04/06 06:34:51;;;;;;;10.98;8.80;;;;;;;3.16;64.48;98558.13;7381948;19;19949;-70
2023/04/06 06:37:19;;;;;;;9.88;8.05;;;;;;;3.17;63.93;98554.56;7384111;19;20347;-70
2023/04/06 06:39:46;;;;;;;10.70;7.85;;;;;;;3.25;64.46;98561.88;7380515;19;19925;-70
2023/04/06 06:42:13;;;;;;;11.00;8.32;;;;;;;3.35;64.44;98555.09;7386392;19;19930;-70
2023/04/06 06:44:55;;;;;;;11.82;8.25;;;;;;;3.37;63.81;98558.44;7376011;19;19986;-70
2023/04/06 06:47:23;;;;;;;13.55;8.70;;;;;;;3.45;63.75;98560.50;7384430;19;19932;-70
2023/04/06 06:49:50;;;;;;;11.45;8.80;;;;;;;3.52;63.49;98562.56;7385091;19;20532;-70
2023/04/06 06:52:17;;;;;;;12.10;8.57;;;;;;;3.57;62.87;98567.50;7384022;19;20318;-70
2023/04/06 06:54:44;;;;;;;13.75;9.38;;;;;;;3.70;62.81;98570.09;7385948;19;19930;-70
2023/04/06 06:57:10;;;;;;;10.90;8.50;;;;;;;3.77;62.42;98560.88;7385407;19;19918;-70
2023/04/06 06:59:37;;;;;;;10.70;7.50;;;;;;;3.88;62.56;98567.97;7385055;19;20298;-70
2023/04/06 07:02:04;;;;;;;13.65;9.13;;;;;;;3.95;61.73;98570.03;7383929;19;19926;-70
2023/04/06 07:04:30;;;;;;;11.57;9.30;;;;;;;4.15;61.63;98562.53;7384645;19;21017;-70
2023/04/06 07:06:57;;;;;;;11.63;8.95;;;;;;;4.34;61.32;98565.47;7384500;19;19931;-70
2023/04/06 07:09:26;;;;;;;12.65;7.88;;;;;;;4.56;60.14;98572.63;7385012;19;19918;-70
2023/04/06 07:11:53;;;;;;;10.70;7.75;;;;;;;4.64;59.56;98566.81;7384171;19;19919;-70
2023/04/06 07:14:19;;;;;;;12.05;8.98;;;;;;;4.71;59.15;98573.25;7383098;19;19930;-70
2023/04/06 07:16:46;;;;;;;11.43;9.07;;;;;;;4.77;59.16;98567.56;7386292;19;19911;-70
2023/04/06 07:19:14;;;;;;;10.90;8.02;;;;;;;4.95;58.90;98572.38;7382777;19;19915;-70
2023/04/06 07:21:41;;;;;;;11.05;8.48;;;;;;;5.02;58.55;98576.22;7383774;19;19926;-71
2023/04/06 07:24:08;;;;;;;11.48;8.32;;;;;;;5.16;58.15;98565.53;7380386;19;19914;-70
2023/04/06 07:26:35;;;;;;;12.45;10.88;;;;;;;5.37;57.93;98567.44;7379820;19;20269;-70
2023/04/06 07:29:03;;;;;;;13.00;8.90;;;;;;;5.68;57.51;98568.53;7376168;19;19922;-70
2023/04/06 07:31:31;;;;;;;10.98;8.38;;;;;;;6.04;54.94;98580.56;7377910;19;19922;-71
2023/04/06 07:33:58;;;;;;;12.02;9.02;;;;;;;6.42;55.98;98567.94;7377822;19;20490;-70
2023/04/06 07:36:25;;;;;;;11.70;9.23;;;;;;;6.60;53.80;98575.16;7380617;19;19915;-70
2023/04/06 07:38:52;;;;;;;13.85;10.32;;;;;;;6.87;53.62;98568.56;7380862;19;20250;-70
2023/04/06 07:41:18;;;;;;;11.15;9.90;;;;;;;7.00;52.18;98571.88;7381712;19;20634;-70
2023/04/06 07:43:45;;;;;;;10.57;8.02;;;;;;;7.01;51.52;98570.91;7378628;19;19926;-70
2023/04/06 07:46:12;;;;;;;12.02;8.63;;;;;;;7.06;51.90;98574.94;7381146;19;19929;-70
2023/04/06 07:48:39;;;;;;;11.25;7.57;;;;;;;7.17;50.23;98570.44;7382063;19;19929;-70
2023/04/06 07:51:06;;;;;;;10.05;9.13;;;;;;;7.33;51.14;98569.16;7383529;19;20272;-70
2023/04/06 07:53:37;;;;;;;9.02;7.70;;;;;;;7.47;50.44;98566.16;7382681;19;19919;-70
2023/04/06 07:56:04;;;;;;;11.65;8.07;;;;;;;7.55;49.95;98562.88;7389092;19;19918;-70
2023/04/06 07:58:31;;;;;;;12.75;7.85;;;;;;;7.72;50.08;98559.63;7382511;19;19929;-70
2023/04/06 08:00:57;;;;;;;12.70;8.65;;;;;;;7.91;49.06;98553.59;7391515;19;19982;-70
2023/04/06 08:03:25;;;;;;;10.38;7.93;;;;;;;8.19;49.45;98566.97;7389115;19;19986;-71
2023/04/06 08:05:52;;;;;;;12.13;9.15;;;;;;;8.53;47.48;98560.41;7377459;19;19919;-71
2023/04/06 08:08:21;;;;;;;10.02;7.82;;;;;;;8.57;46.76;98555.66;7383581;19;19922;-71
2023/04/06 08:10:48;;;;;;;12.73;9.77;;;;;;;8.58;47.92;98562.59;7390873;19;19915;-70
2023/04/06 08:13:15;;;;;;;9.57;7.55;;;;;;;8.55;48.27;98562.88;7384751;19;19931;-70
2023/04/06 08:15:42;;;;;;;10.38;7.20;;;;;;;8.70;46.51;98566.78;7386671;19;19922;-71
2023/04/06 08:18:10;;;;;;;13.32;8.50;;;;;;;8.82;47.59;98563.97;7388878;19;19974;-71
2023/04/06 08:20:36;;;;;;;10.52;8.18;;;;;;;9.25;49.30;98562.69;7386296;19;19978;-70
2023/04/06 08:23:04;;;;;;;11.57;8.25;;;;;;;9.69;45.99;98558.53;7388778;19;19914;-70
2023/04/06 08:25:30;;;;;;;10.25;8.10;;;;;;;10.00;45.25;98563.50;7385065;19;19923;-70
2023/04/06 08:27:57;;;;;;;11.45;8.30;;;;;;;10.13;42.40;98561.34;7384547;19;19944;-71
2023/04/06 08:30:24;;;;;;;11.13;7.95;;;;;;;10.03;43.19;98563.19;7390125;19;19946;-69
2023/04/06 08:32:51;;;;;;;9.63;7.88;;;;;;;9.59;43.29;98561.19;7385666;19;19931;-70
2023/04/06 08:35:19;;;;;;;11.48;7.78;;;;;;;9.55;43.78;98562.44;7385789;19;20007;-70
2023/04/06 08:37:47;;;;;;;12.05;8.45;;;;;;;9.54;45.47;98562.59;7386479;19;20376;-70
2023/04/06 08:40:14;;;;;;;11.82;10.65;;;;;;;9.67;43.03;98563.94;7384737;19;20297;-70
2023/04/06 08:42:46;;;;;;;11.68;7.45;;;;;;;9.89;46.02;98556.59;7389284;19;19923;-70
2023/04/06 08:45:15;;;;;;;13.20;8.52;;;;;;;9.89;45.28;98557.44;7385791;19;19931;-70
2023/04/06 08:47:42;;;;;;;10.90;7.72;;;;;;;10.10;44.34;98559.00;7383649;19;19919;-70
2023/04/06 08:50:11;;;;;;;10.55;7.63;;;;;;;10.07;45.34;98564.59;7382974;19;19918;-70
2023/04/06 08:52:39;;;;;;;11.07;8.00;;;;;;;9.99;43.65;98559.19;7390105;19;19918;-70
2023/04/06 08:55:06;;;;;;;11.55;7.70;;;;;;;9.77;42.52;98565.69;7387869;19;19922;-70
2023/04/06 08:57:33;;;;;;;10.35;7.45;;;;;;;9.90;42.81;98558.28;7389764;19;19926;-70
2023/04/06 09:00:00;;;;;;;11.13;8.65;;;;;;;10.19;42.52;98552.84;7381958;19;19949;-70
2023/04/06 09:02:27;;;;;;;11.38;8.30;;;;;;;10.46;41.54;98549.31;7390673;19;19919;-70
2023/04/06 09:04:54;;;;;;;12.20;10.40;;;;;;;10.44;41.85;98543.34;7386252;19;20650;-70
2023/04/06 09:07:21;;;;;;;11.48;8.98;;;;;;;10.74;42.45;98536.84;7389571;19;20304;-70
2023/04/06 09:09:48;;;;;;;10.73;7.78;;;;;;;11.00;39.02;98543.97;7385863;19;19922;-70
2023/04/06 09:12:30;;;;;;;9.40;7.38;;;;;;;11.66;40.76;98542.56;7387833;19;19933;-70
2023/04/06 09:14:58;;;;;;;11.13;7.50;;;;;;;11.83;38.98;98541.66;7385446;19;20277;-71
2023/04/06 09:17:26;;;;;;;12.40;8.25;;;;;;;11.85;39.02;98529.06;7389569;19;19940;-71
2023/04/06 09:19:53;;;;;;;12.73;7.10;;;;;;;11.94;39.67;98542.41;7386866;19;19927;-71
2023/04/06 09:22:20;;;;;;;11.57;8.13;;;;;;;12.02;38.21;98537.13;7389478;19;20380;-71
2023/04/06 09:24:50;;;;;;;10.13;7.30;;;;;;;11.98;37.04;98539.28;7386342;19;19939;-71
2023/04/06 09:27:17;;;;;;;8.90;7.07;;;;;;;11.99;39.14;98532.13;7388727;19;19930;-71
2023/04/06 09:29:44;;;;;;;9.65;7.25;;;;;;;11.80;37.42;98531.38;7387683;19;19927;-71
2023/04/06 09:32:11;;;;;;;10.70;7.80;;;;;;;11.82;39.53;98526.75;7390322;19;19922;-70
2023/04/06 09:34:38;;;;;;;9.60;6.88;;;;;;;11.82;38.85;98524.09;7387731;19;19922;-70
2023/04/06 09:37:16;;;;;;;11.38;8.57;;;;;;;11.81;38.64;98521.59;7387753;19;19918;-70
2023/04/06 09:39:43;;;;;;;12.43;8.90;;;;;;;11.32;36.51;98524.84;7389346;19;19939;-70
2023/04/06 09:42:10;;;;;;;12.50;8.43;;;;;;;10.84;37.50;98528.81;7388219;19;19922;-70
2023/04/06 09:44:36;;;;;;;10.38;8.80;;;;;;;10.75;38.34;98524.44;7382891;19;20344;-70
2023/04/06 09:47:07;;;;;;;11.30;7.22;;;;;;;10.94;38.17;98524.25;7387411;19;19922;-70
2023/04/06 09:49:35;;;;;;;12.80;7.57;;;;;;;11.17;37.93;98529.06;7383873;19;19928;-70
2023/04/06 09:52:03;;;;;;;9.70;6.35;;;;;;;11.35;36.86;98527.19;7385624;19;19929;-70
2023/04/06 09:54:30;;;;;;;10.43;8.40;;;;;;;11.58;35.89;98518.69;7387988;19;20351;-70
2023/04/06 09:57:21;;;;;;;9.80;7.00;;;;;;;11.85;37.13;98523.78;7385240;19;20783;-70
2023/04/06 10:00:00;;;;;;;8.30;6.18;;;;;;;12.18;35.88;98523.06;7384357;19;20399;-70
2023/04/06 10:02:33;;;;;;;9.05;6.15;;;;;;;12.29;35.37;98520.09;7384804;19;19926;-70
2023/04/06 10:05:06;;;;;;;10.23;6.50;;;;;;;12.22;32.15;98514.63;7383103;19;19929;-70
2023/04/06 10:07:33;;;;;;;9.32;7.45;;;;;;;12.24;33.79;98523.25;7385923;19;19930;-70
2023/04/06 10:10:06;;;;;;;9.02;6.28;;;;;;;12.73;34.32;98519.81;7382245;19;19947;-70
2023/04/06 10:12:33;;;;;;;9.13;7.00;;;;;;;13.07;33.04;98514.31;7383481;19;20826;-70
2023/04/06 10:15:00;;;;;;;9.38;6.95;;;;;;;13.35;33.51;98506.84;7386563;19;19907;-70
2023/04/06 10:17:27;;;;;;;10.55;6.75;;;;;;;13.61;32.03;98508.41;7385172;19;19922;-70
2023/04/06 10:20:04;;;;;;;8.27;6.85;;;;;;;13.82;32.99;98511.34;7385305;19;19919;-70
2023/04/06 10:22:36;;;;;;;8.23;6.25;;;;;;;13.93;31.46;98509.25;7386212;19;19919;-70
2023/04/06 10:25:03;;;;;;;9.20;6.70;;;;;;;14.28;32.01;98505.25;7385063;19;19934;-71
2023/04/06 10:27:30;;;;;;;9.57;6.72;;;;;;;14.61;31.18;98507.72;7389887;19;19910;-71
2023/04/06 10:30:05;;;;;;;13.00;7.88;;;;;;;14.61;31.17;98511.22;7386173;19;19918;-70
2023/04/06 10:32:36;;;;;;;10.60;7.88;;;;;;;14.78;30.57;98498.59;7389003;19;19915;-70
2023/04/06 10:35:07;;;;;;;9.70;7.32;;;;;;;14.68;30.71;98504.16;7386531;19;19941;-70
2023/04/06 10:38:00;;;;;;;9.45;6.97;;;;;;;14.85;29.47;98496.03;7388322;19;19911;-70
2023/04/06 10:40:27;;;;;;;11.02;7.93;;;;;;;13.51;29.91;98505.97;7387799;19;19943;-70
2023/04/06 10:42:55;;;;;;;8.55;6.72;;;;;;;13.63;31.63;98500.25;7385547;19;19944;-70
2023/04/06 10:45:23;;;;;;;11.10;7.78;;;;;;;13.89;31.41;98500.81;7388043;19;19910;-70
2023/04/06 10:47:54;;;;;;;10.35;7.43;;;;;;;13.48;29.80;98495.69;7387519;19;19922;-70
2023/04/06 10:50:21;;;;;;;9.23;7.43;;;;;;;12.90;30.70;98502.06;7383735;19;20315;-70
2023/04/06 10:53:02;;;;;;;11.32;7.50;;;;;;;12.93;30.50;98489.28;7383566;19;19910;-70
2023/04/06 10:55:29;;;;;;;12.45;7.55;;;;;;;13.42;29.88;98485.72;7389150;19;20340;-70
2023/04/06 10:57:56;;;;;;;12.55;8.13;;;;;;;12.93;30.61;98488.47;7386338;19;19915;-70
2023/04/06 11:00:23;;;;;;;12.15;8.50;;;;;;;13.04;30.08;98485.44;7387042;19;19943;-70
2023/04/06 11:02:59;;;;;;;11.02;7.30;;;;;;;13.74;32.67;98489.25;7388574;19;19949;-70
2023/04/06 11:05:26;;;;;;;9.27;7.28;;;;;;;14.54;31.85;98490.81;7386868;19;20344;-70
2023/04/06 11:07:53;;;;;;;10.15;7.30;;;;;;;14.93;31.19;98482.66;7384052;19;19917;-70
2023/04/06 11:10:21;;;;;;;10.40;6.93;;;;;;;15.31;30.16;98478.09;7385817;19;19922;-71
2023/04/06 11:12:54;;;;;;;10.40;7.60;;;;;;;15.65;29.64;98484.72;7389074;19;21124;-71
2023/04/06 11:15:21;;;;;;;11.20;7.15;;;;;;;15.99;28.10;98478.78;7386534;19;19930;-70
2023/04/06 11:17:49;;;;;;;11.13;7.35;;;;;;;16.41;27.81;98476.38;7385826;19;20351;-70
2023/04/06 11:23:59;;;;;;;7.88;6.82;;;;;;;18.62;25.74;98472.03;7345815;19;19963;-82
2023/04/06 11:26:26;;;;;;;7.82;5.63;;;;;;;19.50;24.17;98458.34;7358382;19;19939;-84
2023/04/06 11:28:53;;;;;;;8.70;6.50;;;;;;;20.03;23.81;98458.16;7389302;19;19919;-83
2023/04/06 11:31:25;;;;;;;9.15;6.68;;;;;;;20.52;22.53;98456.63;7393634;19;19915;-84
2023/04/06 11:33:56;;;;;;;7.38;6.05;;;;;;;21.24;20.98;98442.78;7398489;19;19914;-83
2023/04/06 11:36:23;;;;;;;7.28;6.18;;;;;;;20.87;21.47;98442.72;7396537;19;20442;-84
2023/04/06 11:38:50;;;;;;;9.75;6.57;;;;;;;18.56;21.75;98440.69;7404411;19;20016;-82
2023/04/06 11:41:16;;;;;;;7.70;6.78;;;;;;;17.52;24.32;98439.97;7392416;19;19914;-84
2023/04/06 11:43:47;;;;;;;9.50;6.38;;;;;;;17.51;25.15;98441.00;7398697;19;19926;-82
2023/04/06 11:46:17;;;;;;;7.68;6.65;;;;;;;17.63;26.39;98433.22;7395077;19;19952;-83